sensor_id;sensor_type;location;lat;lon;timestamp;pressure;altitude;pressure_sealevel;temperature;humidity
36138;BME280;67787;50.074;21.904;2023-12-20T00:01:22;98594.67;;;2.40;70.71
36138;BME280;67787;50.074;21.904;2023-12-20T00:03:51;98592.67;;;2.42;70.25
36138;BME280;67787;50.074;21.904;2023-12-20T00:06:19;98588.27;;;2.42;70.27
36138;BME280;67787;50.074;21.904;2023-12-20T00:08:47;98585.91;;;2.44;70.32
36138;BME280;67787;50.074;21.904;2023-12-20T00:11:15;98586.61;;;2.44;70.35
36138;BME280;67787;50.074;21.904;2023-12-20T00:13:43;98584.75;;;2.46;70.25
36138;BME280;67787;50.074;21.904;2023-12-20T00:16:13;98576.11;;;2.47;70.36
36138;BME280;67787;50.074;21.904;2023-12-20T00:18:42;98577.38;;;2.50;70.48
36138;BME280;67787;50.074;21.904;2023-12-20T00:21:09;98573.22;;;2.52;70.27
36138;BME280;67787;50.074;21.904;2023-12-20T00:23:37;98570.54;;;2.54;70.30
36138;BME280;67787;50.074;21.904;2023-12-20T00:26:05;98573.11;;;2.55;70.34
36138;BME280;67787;50.074;21.904;2023-12-20T00:28:33;98567.80;;;2.57;70.35
36138;BME280;67787;50.074;21.904;2023-12-20T00:31:02;98566.00;;;2.57;70.11
36138;BME280;67787;50.074;21.904;2023-12-20T00:33:30;98559.42;;;2.60;70.45
36138;BME280;67787;50.074;21.904;2023-12-20T00:35:58;98556.72;;;2.61;70.43
36138;BME280;67787;50.074;21.904;2023-12-20T00:38:26;98555.45;;;2.62;70.21
36138;BME280;67787;50.074;21.904;2023-12-20T00:40:56;98555.91;;;2.63;70.55
36138;BME280;67787;50.074;21.904;2023-12-20T00:43:24;98548.73;;;2.67;70.34
36138;BME280;67787;50.074;21.904;2023-12-20T00:45:52;98556.79;;;2.67;70.52
36138;BME280;67787;50.074;21.904;2023-12-20T00:48:20;98552.40;;;2.67;70.51
36138;BME280;67787;50.074;21.904;2023-12-20T00:50:48;98548.10;;;2.69;70.20
36138;BME280;67787;50.074;21.904;2023-12-20T00:53:16;98547.51;;;2.71;70.21
36138;BME280;67787;50.074;21.904;2023-12-20T00:55:45;98543.74;;;2.73;70.28
36138;BME280;67787;50.074;21.904;2023-12-20T00:58:13;98540.71;;;2.74;70.35
36138;BME280;67787;50.074;21.904;2023-12-20T01:00:43;98537.53;;;2.74;70.35
36138;BME280;67787;50.074;21.904;2023-12-20T01:03:12;98535.40;;;2.75;69.97
36138;BME280;67787;50.074;21.904;2023-12-20T01:05:40;98530.53;;;2.74;70.33
36138;BME280;67787;50.074;21.904;2023-12-20T01:08:08;98533.79;;;2.76;70.30
36138;BME280;67787;50.074;21.904;2023-12-20T01:10:36;98522.25;;;2.75;70.32
36138;BME280;67787;50.074;21.904;2023-12-20T01:13:04;98523.35;;;2.74;70.36
36138;BME280;67787;50.074;21.904;2023-12-20T01:15:32;98516.24;;;2.73;70.05
36138;BME280;67787;50.074;21.904;2023-12-20T01:18:00;98511.44;;;2.71;70.44
36138;BME280;67787;50.074;21.904;2023-12-20T01:20:28;98505.26;;;2.68;70.24
36138;BME280;67787;50.074;21.904;2023-12-20T01:22:56;98507.05;;;2.64;70.05
36138;BME280;67787;50.074;21.904;2023-12-20T01:25:24;98502.95;;;2.58;70.07
36138;BME280;67787;50.074;21.904;2023-12-20T01:27:52;98499.07;;;2.55;70.33
36138;BME280;67787;50.074;21.904;2023-12-20T01:30:20;98495.77;;;2.55;70.05
36138;BME280;67787;50.074;21.904;2023-12-20T01:32:48;98492.41;;;2.51;70.30
36138;BME280;67787;50.074;21.904;2023-12-20T01:35:16;98486.72;;;2.50;70.15
36138;BME280;67787;50.074;21.904;2023-12-20T01:37:44;98490.55;;;2.50;70.08
36138;BME280;67787;50.074;21.904;2023-12-20T01:40:13;98489.23;;;2.49;70.17
36138;BME280;67787;50.074;21.904;2023-12-20T01:42:41;98487.67;;;2.48;70.16
36138;BME280;67787;50.074;21.904;2023-12-20T01:45:09;98490.24;;;2.46;70.36
36138;BME280;67787;50.074;21.904;2023-12-20T01:47:37;98487.31;;;2.45;70.12
36138;BME280;67787;50.074;21.904;2023-12-20T01:50:06;98484.50;;;2.45;70.16
36138;BME280;67787;50.074;21.904;2023-12-20T01:52:36;98491.26;;;2.43;70.17
36138;BME280;67787;50.074;21.904;2023-12-20T01:55:06;98498.67;;;2.42;70.15
36138;BME280;67787;50.074;21.904;2023-12-20T01:57:42;98495.52;;;2.42;69.88
36138;BME280;67787;50.074;21.904;2023-12-20T02:00:11;98482.09;;;2.41;70.08
36138;BME280;67787;50.074;21.904;2023-12-20T02:02:40;98477.09;;;2.39;70.06
36138;BME280;67787;50.074;21.904;2023-12-20T02:05:09;98470.51;;;2.38;69.69
36138;BME280;67787;50.074;21.904;2023-12-20T02:07:37;98462.17;;;2.36;70.08
36138;BME280;67787;50.074;21.904;2023-12-20T02:10:05;98458.58;;;2.35;69.82
36138;BME280;67787;50.074;21.904;2023-12-20T02:12:34;98456.48;;;2.34;69.93
36138;BME280;67787;50.074;21.904;2023-12-20T02:15:02;98459.33;;;2.33;70.06
36138;BME280;67787;50.074;21.904;2023-12-20T02:17:31;98457.27;;;2.33;69.69
36138;BME280;67787;50.074;21.904;2023-12-20T02:19:59;98451.31;;;2.29;69.83
36138;BME280;67787;50.074;21.904;2023-12-20T02:22:28;98453.25;;;2.29;70.05
36138;BME280;67787;50.074;21.904;2023-12-20T02:24:56;98443.61;;;2.29;69.93
36138;BME280;67787;50.074;21.904;2023-12-20T02:27:25;98438.27;;;2.28;70.11
36138;BME280;67787;50.074;21.904;2023-12-20T02:29:52;98438.86;;;2.26;69.80
36138;BME280;67787;50.074;21.904;2023-12-20T02:32:21;98442.23;;;2.26;70.21
36138;BME280;67787;50.074;21.904;2023-12-20T02:34:51;98440.88;;;2.24;70.07
36138;BME280;67787;50.074;21.904;2023-12-20T02:37:19;98432.91;;;2.23;69.92
36138;BME280;67787;50.074;21.904;2023-12-20T02:39:47;98430.18;;;2.21;70.30
36138;BME280;67787;50.074;21.904;2023-12-20T02:42:15;98432.69;;;2.20;69.88
36138;BME280;67787;50.074;21.904;2023-12-20T02:44:43;98438.40;;;2.21;69.99
36138;BME280;67787;50.074;21.904;2023-12-20T02:47:11;98437.00;;;2.22;69.98
36138;BME280;67787;50.074;21.904;2023-12-20T02:49:39;98435.92;;;2.22;69.99
36138;BME280;67787;50.074;21.904;2023-12-20T02:52:07;98430.55;;;2.25;69.84
36138;BME280;67787;50.074;21.904;2023-12-20T02:54:35;98431.90;;;2.26;69.98
36138;BME280;67787;50.074;21.904;2023-12-20T02:57:03;98424.20;;;2.26;69.80
36138;BME280;67787;50.074;21.904;2023-12-20T02:59:31;98420.17;;;2.26;69.91
36138;BME280;67787;50.074;21.904;2023-12-20T03:01:59;98418.27;;;2.25;69.94
36138;BME280;67787;50.074;21.904;2023-12-20T03:04:27;98409.84;;;2.22;70.08
36138;BME280;67787;50.074;21.904;2023-12-20T03:06:55;98403.15;;;2.19;69.96
36138;BME280;67787;50.074;21.904;2023-12-20T03:09:23;98401.13;;;2.18;69.81
36138;BME280;67787;50.074;21.904;2023-12-20T03:11:51;98398.74;;;2.16;69.71
36138;BME280;67787;50.074;21.904;2023-12-20T03:14:19;98398.60;;;2.16;69.77
36138;BME280;67787;50.074;21.904;2023-12-20T03:16:50;98399.48;;;2.16;69.88
36138;BME280;67787;50.074;21.904;2023-12-20T03:19:18;98399.67;;;2.12;70.07
36138;BME280;67787;50.074;21.904;2023-12-20T03:21:47;98397.64;;;2.11;70.14
36138;BME280;67787;50.074;21.904;2023-12-20T03:24:15;98400.27;;;2.11;69.96
36138;BME280;67787;50.074;21.904;2023-12-20T03:26:43;98399.23;;;2.10;70.07
36138;BME280;67787;50.074;21.904;2023-12-20T03:29:11;98396.38;;;2.07;69.85
36138;BME280;67787;50.074;21.904;2023-12-20T03:31:40;98397.77;;;2.04;69.81
36138;BME280;67787;50.074;21.904;2023-12-20T03:34:08;98399.33;;;2.01;69.85
36138;BME280;67787;50.074;21.904;2023-12-20T03:36:36;98397.56;;;1.98;69.91
36138;BME280;67787;50.074;21.904;2023-12-20T03:39:04;98400.29;;;1.96;70.27
36138;BME280;67787;50.074;21.904;2023-12-20T03:41:33;98402.28;;;1.94;70.22
36138;BME280;67787;50.074;21.904;2023-12-20T03:44:00;98400.65;;;1.91;70.21
36138;BME280;67787;50.074;21.904;2023-12-20T03:46:28;98396.79;;;1.88;69.89
36138;BME280;67787;50.074;21.904;2023-12-20T03:48:56;98402.46;;;1.86;70.17
36138;BME280;67787;50.074;21.904;2023-12-20T03:51:28;98400.94;;;1.85;70.31
36138;BME280;67787;50.074;21.904;2023-12-20T03:53:55;98400.23;;;1.86;70.48
36138;BME280;67787;50.074;21.904;2023-12-20T03:56:23;98395.38;;;1.85;70.32
36138;BME280;67787;50.074;21.904;2023-12-20T03:58:51;98391.71;;;1.81;70.37
36138;BME280;67787;50.074;21.904;2023-12-20T04:01:19;98393.65;;;1.77;70.05
36138;BME280;67787;50.074;21.904;2023-12-20T04:03:47;98399.04;;;1.74;70.35
36138;BME280;67787;50.074;21.904;2023-12-20T04:06:18;98401.26;;;1.71;70.55
36138;BME280;67787;50.074;21.904;2023-12-20T04:08:47;98398.80;;;1.68;70.52
36138;BME280;67787;50.074;21.904;2023-12-20T04:11:14;98400.30;;;1.66;70.29
36138;BME280;67787;50.074;21.904;2023-12-20T04:13:42;98394.83;;;1.63;70.74
36138;BME280;67787;50.074;21.904;2023-12-20T04:16:10;98404.42;;;1.59;70.59
36138;BME280;67787;50.074;21.904;2023-12-20T04:18:38;98411.49;;;1.58;70.43
36138;BME280;67787;50.074;21.904;2023-12-20T04:21:07;98412.20;;;1.58;70.43
36138;BME280;67787;50.074;21.904;2023-12-20T04:23:35;98412.63;;;1.56;70.31
36138;BME280;67787;50.074;21.904;2023-12-20T04:26:03;98409.77;;;1.53;70.54
36138;BME280;67787;50.074;21.904;2023-12-20T04:28:31;98409.93;;;1.50;70.54
36138;BME280;67787;50.074;21.904;2023-12-20T04:30:59;98406.44;;;1.49;70.36
36138;BME280;67787;50.074;21.904;2023-12-20T04:33:27;98405.91;;;1.50;70.61
36138;BME280;67787;50.074;21.904;2023-12-20T04:35:55;98405.09;;;1.48;70.64
36138;BME280;67787;50.074;21.904;2023-12-20T04:38:23;98407.65;;;1.50;70.33
36138;BME280;67787;50.074;21.904;2023-12-20T04:40:51;98408.71;;;1.50;70.48
36138;BME280;67787;50.074;21.904;2023-12-20T04:43:19;98407.13;;;1.50;70.35
36138;BME280;67787;50.074;21.904;2023-12-20T04:45:47;98403.00;;;1.52;70.50
36138;BME280;67787;50.074;21.904;2023-12-20T04:48:15;98398.23;;;1.54;70.32
36138;BME280;67787;50.074;21.904;2023-12-20T04:50:43;98388.14;;;1.53;70.38
36138;BME280;67787;50.074;21.904;2023-12-20T04:53:12;98386.42;;;1.52;70.18
36138;BME280;67787;50.074;21.904;2023-12-20T04:56:33;98380.70;;;1.51;70.68
36138;BME280;67787;50.074;21.904;2023-12-20T04:59:01;98379.55;;;1.49;70.08
36138;BME280;67787;50.074;21.904;2023-12-20T05:01:29;98384.79;;;1.49;70.22
36138;BME280;67787;50.074;21.904;2023-12-20T05:03:57;98386.50;;;1.50;70.28
36138;BME280;67787;50.074;21.904;2023-12-20T05:06:25;98389.80;;;1.51;70.41
36138;BME280;67787;50.074;21.904;2023-12-20T05:08:52;98390.29;;;1.52;70.25
36138;BME280;67787;50.074;21.904;2023-12-20T05:11:20;98397.38;;;1.53;70.32
36138;BME280;67787;50.074;21.904;2023-12-20T05:13:48;98399.77;;;1.55;70.41
36138;BME280;67787;50.074;21.904;2023-12-20T05:16:17;98396.23;;;1.55;70.54
36138;BME280;67787;50.074;21.904;2023-12-20T05:18:48;98397.06;;;1.56;70.29
36138;BME280;67787;50.074;21.904;2023-12-20T05:21:18;98396.49;;;1.57;70.15
36138;BME280;67787;50.074;21.904;2023-12-20T05:23:46;98397.11;;;1.59;70.32
36138;BME280;67787;50.074;21.904;2023-12-20T05:26:14;98395.77;;;1.58;70.30
36138;BME280;67787;50.074;21.904;2023-12-20T05:28:42;98388.56;;;1.59;70.18
36138;BME280;67787;50.074;21.904;2023-12-20T05:31:10;98386.27;;;1.62;70.38
36138;BME280;67787;50.074;21.904;2023-12-20T05:33:38;98381.23;;;1.66;70.24
36138;BME280;67787;50.074;21.904;2023-12-20T05:36:06;98375.41;;;1.71;70.28
36138;BME280;67787;50.074;21.904;2023-12-20T05:38:39;98375.91;;;1.75;70.40
36138;BME280;67787;50.074;21.904;2023-12-20T05:41:08;98375.61;;;1.77;70.52
36138;BME280;67787;50.074;21.904;2023-12-20T05:43:35;98378.19;;;1.83;70.60
36138;BME280;67787;50.074;21.904;2023-12-20T05:46:03;98376.42;;;1.86;70.42
36138;BME280;67787;50.074;21.904;2023-12-20T05:48:31;98370.42;;;1.91;70.09
36138;BME280;67787;50.074;21.904;2023-12-20T05:50:59;98373.23;;;1.95;70.44
36138;BME280;67787;50.074;21.904;2023-12-20T05:53:27;98371.38;;;1.97;70.63
36138;BME280;67787;50.074;21.904;2023-12-20T05:55:55;98370.77;;;1.99;70.30
36138;BME280;67787;50.074;21.904;2023-12-20T05:58:22;98369.52;;;1.99;70.46
36138;BME280;67787;50.074;21.904;2023-12-20T06:00:50;98373.56;;;2.02;70.26
36138;BME280;67787;50.074;21.904;2023-12-20T06:03:18;98370.21;;;2.06;70.44
36138;BME280;67787;50.074;21.904;2023-12-20T06:05:46;98380.90;;;2.10;70.43
36138;BME280;67787;50.074;21.904;2023-12-20T06:08:14;98383.10;;;2.12;70.40
36138;BME280;67787;50.074;21.904;2023-12-20T06:10:42;98383.80;;;2.11;70.56
36138;BME280;67787;50.074;21.904;2023-12-20T06:13:10;98388.73;;;2.11;70.39
36138;BME280;67787;50.074;21.904;2023-12-20T06:15:39;98386.66;;;2.14;70.51
36138;BME280;67787;50.074;21.904;2023-12-20T06:18:08;98386.71;;;2.16;70.34
36138;BME280;67787;50.074;21.904;2023-12-20T06:20:37;98382.67;;;2.20;70.51
36138;BME280;67787;50.074;21.904;2023-12-20T06:23:04;98387.27;;;2.26;70.44
36138;BME280;67787;50.074;21.904;2023-12-20T06:25:32;98388.20;;;2.32;70.43
36138;BME280;67787;50.074;21.904;2023-12-20T06:28:02;98391.23;;;2.38;70.43
36138;BME280;67787;50.074;21.904;2023-12-20T06:30:31;98386.29;;;2.43;70.69
36138;BME280;67787;50.074;21.904;2023-12-20T06:33:00;98386.98;;;2.46;70.13
36138;BME280;67787;50.074;21.904;2023-12-20T06:35:28;98393.35;;;2.48;70.28
36138;BME280;67787;50.074;21.904;2023-12-20T06:38:03;98393.02;;;2.51;70.27
36138;BME280;67787;50.074;21.904;2023-12-20T06:40:31;98392.02;;;2.53;70.42
36138;BME280;67787;50.074;21.904;2023-12-20T06:42:59;98390.81;;;2.57;70.39
36138;BME280;67787;50.074;21.904;2023-12-20T06:45:39;98394.33;;;2.60;70.64
36138;BME280;67787;50.074;21.904;2023-12-20T06:48:07;98391.92;;;2.63;70.38
36138;BME280;67787;50.074;21.904;2023-12-20T06:50:35;98386.11;;;2.63;70.40
36138;BME280;67787;50.074;21.904;2023-12-20T06:53:07;98391.72;;;2.67;70.78
36138;BME280;67787;50.074;21.904;2023-12-20T06:55:35;98391.32;;;2.67;70.48
36138;BME280;67787;50.074;21.904;2023-12-20T06:58:05;98396.89;;;2.68;70.44
36138;BME280;67787;50.074;21.904;2023-12-20T07:00:34;98400.75;;;2.68;70.49
36138;BME280;67787;50.074;21.904;2023-12-20T07:03:02;98402.50;;;2.68;70.48
36138;BME280;67787;50.074;21.904;2023-12-20T07:05:31;98399.14;;;2.68;70.25
36138;BME280;67787;50.074;21.904;2023-12-20T07:07:59;98400.34;;;2.69;70.51
36138;BME280;67787;50.074;21.904;2023-12-20T07:10:27;98398.77;;;2.69;70.23
36138;BME280;67787;50.074;21.904;2023-12-20T07:12:55;98400.45;;;2.71;70.18
36138;BME280;67787;50.074;21.904;2023-12-20T07:15:23;98402.09;;;2.73;70.64
36138;BME280;67787;50.074;21.904;2023-12-20T07:17:52;98407.80;;;2.74;70.33
36138;BME280;67787;50.074;21.904;2023-12-20T07:20:20;98404.81;;;2.74;69.90
36138;BME280;67787;50.074;21.904;2023-12-20T07:22:48;98405.31;;;2.75;70.47
36138;BME280;67787;50.074;21.904;2023-12-20T07:25:16;98408.55;;;2.77;70.59
36138;BME280;67787;50.074;21.904;2023-12-20T07:27:44;98410.80;;;2.77;70.13
36138;BME280;67787;50.074;21.904;2023-12-20T07:30:12;98411.48;;;2.77;70.49
36138;BME280;67787;50.074;21.904;2023-12-20T07:32:40;98412.42;;;2.79;70.63
36138;BME280;67787;50.074;21.904;2023-12-20T07:35:08;98411.39;;;2.83;70.54
36138;BME280;67787;50.074;21.904;2023-12-20T07:37:36;98414.59;;;2.85;70.34
36138;BME280;67787;50.074;21.904;2023-12-20T07:40:04;98414.77;;;2.85;70.35
36138;BME280;67787;50.074;21.904;2023-12-20T07:42:33;98404.89;;;2.83;70.41
36138;BME280;67787;50.074;21.904;2023-12-20T07:45:00;98409.59;;;2.84;70.35
36138;BME280;67787;50.074;21.904;2023-12-20T07:47:31;98408.59;;;2.83;70.34
36138;BME280;67787;50.074;21.904;2023-12-20T07:49:58;98405.48;;;2.82;69.87
36138;BME280;67787;50.074;21.904;2023-12-20T07:52:27;98404.33;;;2.80;69.69
36138;BME280;67787;50.074;21.904;2023-12-20T07:54:55;98396.09;;;2.77;69.79
36138;BME280;67787;50.074;21.904;2023-12-20T07:57:25;98394.23;;;2.75;70.09
36138;BME280;67787;50.074;21.904;2023-12-20T07:59:52;98393.49;;;2.73;69.85
36138;BME280;67787;50.074;21.904;2023-12-20T08:06:19;98393.95;;;2.71;70.01
36138;BME280;67787;50.074;21.904;2023-12-20T08:08:48;98388.69;;;2.68;70.00
36138;BME280;67787;50.074;21.904;2023-12-20T08:11:28;98385.94;;;2.67;70.01
36138;BME280;67787;50.074;21.904;2023-12-20T08:13:57;98386.70;;;2.65;70.11
36138;BME280;67787;50.074;21.904;2023-12-20T08:16:24;98382.92;;;2.64;70.08
36138;BME280;67787;50.074;21.904;2023-12-20T08:18:52;98379.61;;;2.60;69.84
36138;BME280;67787;50.074;21.904;2023-12-20T08:21:20;98372.77;;;2.57;70.09
36138;BME280;67787;50.074;21.904;2023-12-20T08:23:50;98371.33;;;2.58;70.14
36138;BME280;67787;50.074;21.904;2023-12-20T08:26:21;98369.67;;;2.63;70.13
36138;BME280;67787;50.074;21.904;2023-12-20T08:28:50;98365.80;;;2.66;70.14
36138;BME280;67787;50.074;21.904;2023-12-20T08:31:18;98367.90;;;2.70;70.36
36138;BME280;67787;50.074;21.904;2023-12-20T08:33:48;98377.25;;;2.76;70.22
36138;BME280;67787;50.074;21.904;2023-12-20T08:36:16;98378.45;;;2.80;70.38
36138;BME280;67787;50.074;21.904;2023-12-20T08:38:47;98373.45;;;2.85;70.19
36138;BME280;67787;50.074;21.904;2023-12-20T08:41:16;98376.15;;;2.90;70.47
36138;BME280;67787;50.074;21.904;2023-12-20T08:43:44;98376.13;;;2.94;70.27
36138;BME280;67787;50.074;21.904;2023-12-20T08:46:14;98380.64;;;2.98;70.47
36138;BME280;67787;50.074;21.904;2023-12-20T08:48:42;98376.32;;;3.01;70.49
36138;BME280;67787;50.074;21.904;2023-12-20T08:51:10;98381.96;;;3.06;70.40
36138;BME280;67787;50.074;21.904;2023-12-20T08:53:38;98382.20;;;3.08;70.35
36138;BME280;67787;50.074;21.904;2023-12-20T08:56:07;98386.36;;;3.09;70.27
36138;BME280;67787;50.074;21.904;2023-12-20T08:58:34;98379.30;;;3.10;70.25
36138;BME280;67787;50.074;21.904;2023-12-20T09:01:04;98378.55;;;3.11;70.19
36138;BME280;67787;50.074;21.904;2023-12-20T09:03:32;98378.59;;;3.10;70.40
36138;BME280;67787;50.074;21.904;2023-12-20T09:06:00;98377.46;;;3.12;70.24
36138;BME280;67787;50.074;21.904;2023-12-20T09:08:28;98370.55;;;3.14;70.05
36138;BME280;67787;50.074;21.904;2023-12-20T09:10:56;98369.31;;;3.13;70.30
36138;BME280;67787;50.074;21.904;2023-12-20T09:13:25;98368.50;;;3.16;70.58
36138;BME280;67787;50.074;21.904;2023-12-20T09:15:56;98363.09;;;3.19;70.22
36138;BME280;67787;50.074;21.904;2023-12-20T09:18:25;98362.81;;;3.21;70.17
36138;BME280;67787;50.074;21.904;2023-12-20T09:20:54;98360.55;;;3.24;70.67
36138;BME280;67787;50.074;21.904;2023-12-20T09:23:23;98361.23;;;3.27;70.32
36138;BME280;67787;50.074;21.904;2023-12-20T09:25:51;98357.94;;;3.30;70.30
36138;BME280;67787;50.074;21.904;2023-12-20T09:28:23;98355.31;;;3.30;70.26
36138;BME280;67787;50.074;21.904;2023-12-20T09:30:51;98354.13;;;3.32;70.20
36138;BME280;67787;50.074;21.904;2023-12-20T09:33:19;98346.80;;;3.35;70.33
36138;BME280;67787;50.074;21.904;2023-12-20T09:35:47;98347.16;;;3.35;70.23
36138;BME280;67787;50.074;21.904;2023-12-20T09:38:15;98346.88;;;3.37;70.32
36138;BME280;67787;50.074;21.904;2023-12-20T09:40:45;98346.20;;;3.40;70.49
36138;BME280;67787;50.074;21.904;2023-12-20T09:43:19;98346.71;;;3.43;70.33
36138;BME280;67787;50.074;21.904;2023-12-20T09:45:47;98344.11;;;3.49;70.49
36138;BME280;67787;50.074;21.904;2023-12-20T09:48:18;98341.65;;;3.56;70.47
36138;BME280;67787;50.074;21.904;2023-12-20T09:50:47;98341.38;;;3.61;70.27
36138;BME280;67787;50.074;21.904;2023-12-20T09:53:21;98331.17;;;3.64;70.21
36138;BME280;67787;50.074;21.904;2023-12-20T09:55:52;98329.48;;;3.69;70.34
36138;BME280;67787;50.074;21.904;2023-12-20T09:58:23;98330.60;;;3.75;70.48
36138;BME280;67787;50.074;21.904;2023-12-20T10:00:53;98331.75;;;3.79;70.51
36138;BME280;67787;50.074;21.904;2023-12-20T10:03:25;98333.58;;;3.84;70.42
36138;BME280;67787;50.074;21.904;2023-12-20T10:05:57;98335.20;;;3.86;70.57
36138;BME280;67787;50.074;21.904;2023-12-20T10:08:25;98333.09;;;3.89;70.46
36138;BME280;67787;50.074;21.904;2023-12-20T10:10:54;98333.98;;;3.92;70.40
36138;BME280;67787;50.074;21.904;2023-12-20T10:13:23;98335.96;;;3.95;70.41
36138;BME280;67787;50.074;21.904;2023-12-20T10:15:51;98335.20;;;3.96;70.55
36138;BME280;67787;50.074;21.904;2023-12-20T10:18:20;98337.61;;;3.96;70.53
36138;BME280;67787;50.074;21.904;2023-12-20T10:20:49;98340.50;;;3.98;70.66
36138;BME280;67787;50.074;21.904;2023-12-20T10:23:16;98335.02;;;3.99;70.53
36138;BME280;67787;50.074;21.904;2023-12-20T10:25:56;98325.77;;;3.98;70.47
36138;BME280;67787;50.074;21.904;2023-12-20T10:28:25;98327.11;;;3.99;70.52
36138;BME280;67787;50.074;21.904;2023-12-20T10:30:55;98323.70;;;4.00;70.55
36138;BME280;67787;50.074;21.904;2023-12-20T10:33:30;98331.27;;;3.97;70.70
36138;BME280;67787;50.074;21.904;2023-12-20T10:36:00;98328.17;;;3.96;70.50
36138;BME280;67787;50.074;21.904;2023-12-20T10:38:28;98329.32;;;3.94;70.65
36138;BME280;67787;50.074;21.904;2023-12-20T10:40:58;98323.35;;;3.94;70.55
36138;BME280;67787;50.074;21.904;2023-12-20T10:43:30;98328.55;;;3.95;70.55
36138;BME280;67787;50.074;21.904;2023-12-20T10:46:16;98313.95;;;3.96;70.78
36138;BME280;67787;50.074;21.904;2023-12-20T10:48:47;98311.96;;;3.94;70.76
36138;BME280;67787;50.074;21.904;2023-12-20T10:51:17;98319.20;;;3.90;70.79
36138;BME280;67787;50.074;21.904;2023-12-20T10:53:47;98315.30;;;3.87;70.73
36138;BME280;67787;50.074;21.904;2023-12-20T10:56:18;98313.27;;;3.89;70.73
36138;BME280;67787;50.074;21.904;2023-12-20T10:58:49;98315.29;;;3.85;70.57
36138;BME280;67787;50.074;21.904;2023-12-20T11:03:36;98317.05;;;3.82;71.29
36138;BME280;67787;50.074;21.904;2023-12-20T11:06:13;98319.19;;;3.68;70.81
36138;BME280;67787;50.074;21.904;2023-12-20T11:11:50;98313.52;;;3.67;71.10
36138;BME280;67787;50.074;21.904;2023-12-20T11:14:23;98305.92;;;3.62;71.14
36138;BME280;67787;50.074;21.904;2023-12-20T11:17:06;98303.85;;;3.57;70.95
36138;BME280;67787;50.074;21.904;2023-12-20T11:20:04;98301.27;;;3.53;70.93
36138;BME280;67787;50.074;21.904;2023-12-20T11:22:32;98299.11;;;3.51;71.23
36138;BME280;67787;50.074;21.904;2023-12-20T11:25:08;98299.81;;;3.48;71.02
36138;BME280;67787;50.074;21.904;2023-12-20T11:27:41;98297.25;;;3.50;71.06
36138;BME280;67787;50.074;21.904;2023-12-20T11:30:11;98292.85;;;3.50;71.25
36138;BME280;67787;50.074;21.904;2023-12-20T11:32:41;98288.41;;;3.48;71.17
36138;BME280;67787;50.074;21.904;2023-12-20T11:37:40;98287.65;;;3.37;71.19
36138;BME280;67787;50.074;21.904;2023-12-20T11:40:15;98289.11;;;3.32;71.24
36138;BME280;67787;50.074;21.904;2023-12-20T11:42:45;98285.98;;;3.32;71.12
36138;BME280;67787;50.074;21.904;2023-12-20T11:45:19;98284.58;;;3.29;71.34
36138;BME280;67787;50.074;21.904;2023-12-20T11:47:51;98282.41;;;3.24;71.29
36138;BME280;67787;50.074;21.904;2023-12-20T11:50:22;98282.06;;;3.23;71.32
36138;BME280;67787;50.074;21.904;2023-12-20T11:52:52;98279.39;;;3.24;71.30
36138;BME280;67787;50.074;21.904;2023-12-20T11:55:23;98276.21;;;3.21;71.38
36138;BME280;67787;50.074;21.904;2023-12-20T11:57:52;98271.44;;;3.19;71.57
36138;BME280;67787;50.074;21.904;2023-12-20T12:00:20;98270.56;;;3.19;71.28
36138;BME280;67787;50.074;21.904;2023-12-20T12:02:55;98270.02;;;3.20;71.43
36138;BME280;67787;50.074;21.904;2023-12-20T12:05:24;98268.79;;;3.16;71.50
36138;BME280;67787;50.074;21.904;2023-12-20T12:07:52;98269.65;;;3.13;71.32
36138;BME280;67787;50.074;21.904;2023-12-20T12:10:21;98274.45;;;3.12;71.45
36138;BME280;67787;50.074;21.904;2023-12-20T12:12:49;98275.26;;;3.13;71.61
36138;BME280;67787;50.074;21.904;2023-12-20T12:15:17;98274.38;;;3.13;71.34
36138;BME280;67787;50.074;21.904;2023-12-20T12:17:53;98267.48;;;3.11;71.91
36138;BME280;67787;50.074;21.904;2023-12-20T12:20:22;98265.36;;;3.05;71.61
36138;BME280;67787;50.074;21.904;2023-12-20T12:23:22;98262.29;;;3.04;71.48
36138;BME280;67787;50.074;21.904;2023-12-20T12:25:52;98258.45;;;3.07;71.65
36138;BME280;67787;50.074;21.904;2023-12-20T12:28:21;98255.19;;;3.09;71.55
36138;BME280;67787;50.074;21.904;2023-12-20T12:30:57;98254.29;;;3.09;71.42
36138;BME280;67787;50.074;21.904;2023-12-20T12:33:26;98253.67;;;3.11;71.54
36138;BME280;67787;50.074;21.904;2023-12-20T12:35:54;98254.95;;;3.10;71.96
36138;BME280;67787;50.074;21.904;2023-12-20T12:38:24;98256.62;;;3.05;72.19
36138;BME280;67787;50.074;21.904;2023-12-20T12:40:52;98257.20;;;3.01;71.99
36138;BME280;67787;50.074;21.904;2023-12-20T12:43:22;98259.84;;;2.97;71.87
36138;BME280;67787;50.074;21.904;2023-12-20T12:45:51;98261.69;;;2.95;71.62
36138;BME280;67787;50.074;21.904;2023-12-20T12:48:19;98258.84;;;2.96;71.89
36138;BME280;67787;50.074;21.904;2023-12-20T12:50:47;98261.81;;;2.96;72.65
36138;BME280;67787;50.074;21.904;2023-12-20T12:53:15;98256.94;;;2.89;72.00
36138;BME280;67787;50.074;21.904;2023-12-20T12:55:43;98257.71;;;2.88;72.19
36138;BME280;67787;50.074;21.904;2023-12-20T12:58:13;98255.91;;;2.89;72.13
36138;BME280;67787;50.074;21.904;2023-12-20T13:00:41;98254.88;;;2.85;72.00
36138;BME280;67787;50.074;21.904;2023-12-20T13:03:10;98256.13;;;2.85;71.83
36138;BME280;67787;50.074;21.904;2023-12-20T13:05:38;98256.87;;;2.87;72.09
36138;BME280;67787;50.074;21.904;2023-12-20T13:08:09;98260.31;;;2.88;72.29
36138;BME280;67787;50.074;21.904;2023-12-20T13:10:39;98261.20;;;2.88;72.11
36138;BME280;67787;50.074;21.904;2023-12-20T13:13:07;98263.35;;;2.91;72.02
36138;BME280;67787;50.074;21.904;2023-12-20T13:15:35;98264.40;;;2.94;71.96
36138;BME280;67787;50.074;21.904;2023-12-20T13:18:03;98265.38;;;2.95;72.07
36138;BME280;67787;50.074;21.904;2023-12-20T13:20:33;98264.23;;;2.97;72.22
36138;BME280;67787;50.074;21.904;2023-12-20T13:23:01;98256.75;;;2.99;72.07